createdAt,value
2023-02-14T00:02:06.995Z,-70
2023-02-14T00:04:34.892Z,-70
2023-02-14T00:07:02.665Z,-70
2023-02-14T00:09:30.564Z,-69
2023-02-14T00:11:58.346Z,-69
2023-02-14T00:14:43.813Z,-70
2023-02-14T00:17:11.606Z,-70
2023-02-14T00:19:39.522Z,-70
2023-02-14T00:22:07.274Z,-70
2023-02-14T00:24:35.017Z,-70
2023-02-14T00:27:03.008Z,-70
2023-02-14T00:29:30.873Z,-70
2023-02-14T00:31:58.905Z,-70
2023-02-14T00:34:26.855Z,-69
2023-02-14T00:36:54.615Z,-70
2023-02-14T00:39:22.440Z,-69
2023-02-14T00:41:50.357Z,-69
2023-02-14T00:44:18.144Z,-70
2023-02-14T00:46:45.914Z,-70
2023-02-14T00:49:13.688Z,-69
2023-02-14T00:51:41.485Z,-70
2023-02-14T00:54:09.239Z,-69
2023-02-14T00:56:37.147Z,-70
2023-02-14T00:59:05.113Z,-70
2023-02-14T01:01:32.915Z,-70
2023-02-14T01:04:00.878Z,-69
2023-02-14T01:06:28.632Z,-69
2023-02-14T01:08:56.482Z,-69
2023-02-14T01:11:24.228Z,-70
2023-02-14T01:13:51.988Z,-69
2023-02-14T01:19:05.279Z,-70
2023-02-14T01:21:33.226Z,-70
2023-02-14T01:24:00.993Z,-70
2023-02-14T01:26:28.758Z,-69
2023-02-14T01:28:56.601Z,-70
2023-02-14T01:31:24.647Z,-70
2023-02-14T01:33:52.493Z,-70
2023-02-14T01:36:20.355Z,-70
2023-02-14T01:38:48.241Z,-69
2023-02-14T01:41:15.975Z,-70
2023-02-14T01:43:43.780Z,-70
2023-02-14T01:46:11.560Z,-70
2023-02-14T01:48:39.382Z,-70
2023-02-14T01:51:07.207Z,-70
2023-02-14T01:53:34.959Z,-70
2023-02-14T01:56:02.927Z,-70
2023-02-14T01:58:30.705Z,-70
2023-02-14T02:00:57.818Z,-69
2023-02-14T02:03:25.938Z,-69
2023-02-14T02:05:53.847Z,-69
2023-02-14T02:08:21.668Z,-69
2023-02-14T02:10:49.520Z,-70
2023-02-14T02:13:17.322Z,-69
2023-02-14T02:15:45.144Z,-70
2023-02-14T02:18:12.908Z,-70
2023-02-14T02:20:40.615Z,-70
2023-02-14T02:23:08.578Z,-70
2023-02-14T02:25:36.445Z,-70
2023-02-14T02:28:04.177Z,-69
2023-02-14T02:30:32.121Z,-70
2023-02-14T02:32:59.893Z,-70
2023-02-14T02:35:27.617Z,-69
2023-02-14T02:37:55.476Z,-69
2023-02-14T02:40:23.191Z,-69
2023-02-14T02:42:51.177Z,-70
2023-02-14T02:45:18.930Z,-69
2023-02-14T02:47:46.666Z,-70
2023-02-14T02:50:31.981Z,-70
2023-02-14T02:53:04.217Z,-70
2023-02-14T02:55:52.089Z,-70
2023-02-14T02:58:19.104Z,-69
2023-02-14T03:00:46.866Z,-70
2023-02-14T03:03:32.431Z,-70
2023-02-14T03:06:00.230Z,-69
2023-02-14T03:08:28.318Z,-69
2023-02-14T03:10:56.066Z,-69
2023-02-14T03:13:23.868Z,-69
2023-02-14T03:15:51.763Z,-70
2023-02-14T03:18:19.596Z,-69
2023-02-14T03:20:46.342Z,-70
2023-02-14T03:23:14.209Z,-69
2023-02-14T03:25:42.065Z,-69
2023-02-14T03:28:09.809Z,-69
2023-02-14T03:30:41.711Z,-69
2023-02-14T03:33:09.523Z,-70
2023-02-14T03:35:37.332Z,-69
2023-02-14T03:38:05.105Z,-69
2023-02-14T03:40:32.913Z,-70
2023-02-14T03:43:00.697Z,-70
2023-02-14T03:45:29.110Z,-70
2023-02-14T03:47:57.062Z,-70
2023-02-14T03:50:24.838Z,-69
2023-02-14T03:52:52.626Z,-70
2023-02-14T03:55:20.419Z,-69
2023-02-14T03:57:49.092Z,-70
2023-02-14T04:00:18.371Z,-70
2023-02-14T04:02:46.709Z,-70
2023-02-14T04:05:14.471Z,-69
2023-02-14T04:07:42.284Z,-70
2023-02-14T04:10:10.138Z,-69
2023-02-14T04:12:38.362Z,-70
2023-02-14T04:15:06.249Z,-69
2023-02-14T04:17:51.813Z,-69
2023-02-14T04:20:19.643Z,-69
2023-02-14T04:22:47.517Z,-69
2023-02-14T04:25:15.347Z,-69
2023-02-14T04:27:43.326Z,-69
2023-02-14T04:30:12.510Z,-69
2023-02-14T04:32:40.352Z,-70
2023-02-14T04:35:08.090Z,-69
2023-02-14T04:37:35.917Z,-69
2023-02-14T04:40:03.660Z,-69
2023-02-14T04:42:31.425Z,-70
2023-02-14T04:44:59.212Z,-69
2023-02-14T04:47:26.995Z,-69
2023-02-14T04:49:54.734Z,-69
2023-02-14T04:52:22.514Z,-70
2023-02-14T04:54:50.378Z,-70
2023-02-14T04:57:18.254Z,-69
2023-02-14T04:59:46.092Z,-71
2023-02-14T05:02:13.872Z,-71
2023-02-14T05:04:41.644Z,-70
2023-02-14T05:07:09.424Z,-70
2023-02-14T05:09:37.250Z,-71
2023-02-14T05:12:05.029Z,-70
2023-02-14T05:14:32.852Z,-68
2023-02-14T05:17:00.631Z,-71
2023-02-14T05:19:28.440Z,-71
2023-02-14T05:21:56.190Z,-71
2023-02-14T05:24:24.149Z,-71
2023-02-14T05:26:51.932Z,-71
2023-02-14T05:29:19.697Z,-71
2023-02-14T05:31:47.509Z,-68
2023-02-14T05:34:15.289Z,-71
2023-02-14T05:36:43.103Z,-71
2023-02-14T05:39:10.922Z,-69
2023-02-14T05:41:41.391Z,-68
2023-02-14T05:44:09.128Z,-72
2023-02-14T05:46:36.967Z,-68
2023-02-14T05:49:05.342Z,-68
2023-02-14T05:51:33.121Z,-68
2023-02-14T05:54:01.457Z,-67
2023-02-14T05:56:29.259Z,-68
2023-02-14T05:58:57.033Z,-68
2023-02-14T06:01:24.957Z,-68
2023-02-14T06:03:52.793Z,-71
2023-02-14T06:06:20.636Z,-73
2023-02-14T06:08:48.432Z,-68
2023-02-14T06:11:16.248Z,-68
2023-02-14T06:13:44.044Z,-69
2023-02-14T06:16:11.947Z,-69
2023-02-14T06:18:39.804Z,-68
2023-02-14T06:21:07.820Z,-68
2023-02-14T06:23:35.656Z,-70
2023-02-14T06:26:03.839Z,-71
2023-02-14T06:28:33.083Z,-70
2023-02-14T06:31:01.722Z,-73
2023-02-14T06:33:29.817Z,-69
2023-02-14T06:35:57.583Z,-69
2023-02-14T06:38:25.372Z,-68
2023-02-14T06:40:53.160Z,-68
2023-02-14T06:43:20.923Z,-68
2023-02-14T06:45:48.733Z,-67
2023-02-14T06:48:16.535Z,-69
2023-02-14T06:50:44.296Z,-71
2023-02-14T06:53:12.057Z,-73
2023-02-14T06:55:39.925Z,-68
2023-02-14T06:58:07.709Z,-69
2023-02-14T07:00:35.506Z,-68
2023-02-14T07:03:03.437Z,-68
2023-02-14T07:05:31.873Z,-68
2023-02-14T07:07:59.685Z,-69
2023-02-14T07:10:27.412Z,-69
2023-02-14T07:12:55.171Z,-69
2023-02-14T07:15:22.941Z,-69
2023-02-14T07:17:50.679Z,-69
2023-02-14T07:20:19.336Z,-69
2023-02-14T07:22:47.128Z,-68
2023-02-14T07:25:14.923Z,-69
2023-02-14T07:27:42.727Z,-69
2023-02-14T07:30:10.529Z,-69
2023-02-14T07:32:38.313Z,-69
2023-02-14T07:35:06.053Z,-69
2023-02-14T07:37:33.961Z,-69
2023-02-14T07:40:01.733Z,-69
2023-02-14T07:42:29.529Z,-69
2023-02-14T07:44:57.289Z,-69
2023-02-14T07:47:25.817Z,-69
2023-02-14T07:49:53.680Z,-69
2023-02-14T07:52:21.464Z,-69
2023-02-14T07:54:49.294Z,-72
2023-02-14T07:57:17.037Z,-71
2023-02-14T07:59:44.790Z,-72
2023-02-14T08:02:12.751Z,-69
2023-02-14T08:04:40.647Z,-68
2023-02-14T08:07:08.500Z,-72
2023-02-14T08:09:36.296Z,-72
2023-02-14T08:12:21.688Z,-71
2023-02-14T08:14:49.445Z,-71
2023-02-14T08:17:17.284Z,-73
2023-02-14T08:19:45.204Z,-73
2023-02-14T08:22:13.115Z,-68
2023-02-14T08:24:40.940Z,-69
2023-02-14T08:27:08.678Z,-68
2023-02-14T08:29:36.473Z,-68
2023-02-14T08:32:04.330Z,-68
2023-02-14T08:34:32.136Z,-70
2023-02-14T08:36:59.958Z,-70
2023-02-14T08:39:27.744Z,-72
2023-02-14T08:41:55.633Z,-67
2023-02-14T08:44:23.790Z,-68
2023-02-14T08:46:51.639Z,-68
2023-02-14T08:49:19.427Z,-68
2023-02-14T08:51:47.201Z,-68
2023-02-14T08:54:14.943Z,-68
2023-02-14T08:56:42.915Z,-69
2023-02-14T08:59:10.621Z,-71
2023-02-14T09:01:38.586Z,-69
2023-02-14T09:04:06.415Z,-68
2023-02-14T09:06:36.979Z,-68
2023-02-14T09:09:04.729Z,-72
2023-02-14T09:11:32.552Z,-68
2023-02-14T09:14:00.310Z,-70
2023-02-14T09:16:28.176Z,-70
2023-02-14T09:18:56.849Z,-69
2023-02-14T09:21:25.624Z,-69
2023-02-14T09:23:53.766Z,-69
2023-02-14T09:26:21.828Z,-70
2023-02-14T09:28:50.375Z,-69
2023-02-14T09:31:19.524Z,-69
2023-02-14T09:33:52.843Z,-69
2023-02-14T09:36:38.798Z,-69
2023-02-14T09:39:06.552Z,-69
2023-02-14T09:41:34.472Z,-70
2023-02-14T09:44:02.222Z,-72
2023-02-14T09:46:31.505Z,-70
2023-02-14T09:48:59.372Z,-68
2023-02-14T09:51:27.148Z,-68
2023-02-14T09:53:54.967Z,-69
2023-02-14T09:56:22.728Z,-70
2023-02-14T09:58:50.580Z,-73
2023-02-14T10:01:18.405Z,-68
2023-02-14T10:03:46.185Z,-69
2023-02-14T10:06:13.981Z,-69
2023-02-14T10:08:41.809Z,-69
2023-02-14T10:11:09.534Z,-69
2023-02-14T10:13:37.306Z,-71
2023-02-14T10:16:05.121Z,-75
2023-02-14T10:18:33.171Z,-70
2023-02-14T10:21:01.291Z,-69
2023-02-14T10:23:29.267Z,-69
2023-02-14T10:25:57.022Z,-70
2023-02-14T10:28:24.826Z,-69
2023-02-14T10:30:52.637Z,-69
2023-02-14T10:33:22.858Z,-69
2023-02-14T10:35:50.886Z,-69
2023-02-14T10:38:18.698Z,-69
2023-02-14T10:40:46.470Z,-69
2023-02-14T10:43:15.421Z,-69
2023-02-14T10:45:43.335Z,-69
2023-02-14T10:48:13.243Z,-69
2023-02-14T10:50:41.269Z,-69
2023-02-14T10:53:09.083Z,-69
2023-02-14T10:55:36.849Z,-69
2023-02-14T10:58:05.177Z,-69
2023-02-14T11:00:32.910Z,-69
2023-02-14T11:03:00.667Z,-69
2023-02-14T11:05:28.389Z,-69
2023-02-14T11:07:56.498Z,-69
2023-02-14T11:10:24.265Z,-69
2023-02-14T11:12:52.031Z,-69
2023-02-14T11:15:19.940Z,-69
2023-02-14T11:17:47.725Z,-69
2023-02-14T11:20:16.991Z,-70
2023-02-14T11:22:44.849Z,-70
2023-02-14T11:25:12.651Z,-71
2023-02-14T11:27:40.416Z,-70
2023-02-14T11:30:08.444Z,-70
2023-02-14T11:32:37.602Z,-69
2023-02-14T11:35:05.428Z,-70
2023-02-14T11:37:34.039Z,-70
2023-02-14T11:40:04.292Z,-71
2023-02-14T11:42:32.234Z,-69
2023-02-14T11:45:00.027Z,-70
2023-02-14T11:47:28.134Z,-70
2023-02-14T11:49:56.056Z,-70
2023-02-14T11:52:29.049Z,-70
2023-02-14T11:54:56.823Z,-70
2023-02-14T11:57:26.260Z,-71
2023-02-14T11:59:54.251Z,-79
2023-02-14T12:02:23.195Z,-79
2023-02-14T12:04:51.326Z,-79
2023-02-14T12:07:19.122Z,-79
2023-02-14T12:09:47.027Z,-79
2023-02-14T12:12:14.816Z,-79
2023-02-14T12:14:42.768Z,-79
2023-02-14T12:17:10.580Z,-78
2023-02-14T12:19:38.406Z,-79
2023-02-14T12:22:06.325Z,-79
2023-02-14T12:24:34.298Z,-79
2023-02-14T12:27:02.102Z,-79
2023-02-14T12:29:29.843Z,-79
2023-02-14T12:31:57.827Z,-80
2023-02-14T12:34:26.791Z,-79
2023-02-14T12:36:55.325Z,-79
2023-02-14T12:39:23.220Z,-79
2023-02-14T12:41:51.019Z,-79
2023-02-14T12:44:18.801Z,-79
2023-02-14T12:46:46.596Z,-79
2023-02-14T12:49:14.444Z,-81
2023-02-14T12:51:42.225Z,-79
2023-02-14T12:54:09.933Z,-79
2023-02-14T12:56:37.736Z,-79
2023-02-14T12:59:05.541Z,-79
2023-02-14T13:01:39.062Z,-79
2023-02-14T13:04:07.060Z,-79
2023-02-14T13:06:34.845Z,-81
2023-02-14T13:09:02.662Z,-79
2023-02-14T13:11:30.525Z,-79
2023-02-14T13:14:04.374Z,-79
2023-02-14T13:16:32.287Z,-79
2023-02-14T13:19:00.130Z,-79
2023-02-14T13:21:27.975Z,-79
2023-02-14T13:23:55.680Z,-79
2023-02-14T13:26:23.460Z,-79
2023-02-14T13:28:51.283Z,-79
2023-02-14T13:31:19.172Z,-79
2023-02-14T13:33:46.973Z,-79
2023-02-14T13:36:14.738Z,-79
2023-02-14T13:38:42.469Z,-79
2023-02-14T13:41:10.257Z,-79
2023-02-14T13:43:38.022Z,-80
2023-02-14T13:46:06.949Z,-79
2023-02-14T13:48:35.987Z,-79
2023-02-14T13:51:05.187Z,-79
2023-02-14T13:53:32.937Z,-79
2023-02-14T13:56:00.969Z,-79
2023-02-14T13:58:29.459Z,-82
2023-02-14T14:00:57.287Z,-79
2023-02-14T14:03:25.081Z,-79
2023-02-14T14:05:52.811Z,-80
2023-02-14T14:08:22.012Z,-79
2023-02-14T14:10:49.811Z,-79
2023-02-14T14:13:17.746Z,-79
2023-02-14T14:15:45.557Z,-79
2023-02-14T14:18:13.400Z,-80
2023-02-14T14:20:41.226Z,-79
2023-02-14T14:23:09.008Z,-79
2023-02-14T14:25:37.567Z,-79
2023-02-14T14:28:05.464Z,-79
2023-02-14T14:30:33.822Z,-79
2023-02-14T14:33:03.522Z,-79
2023-02-14T14:35:31.443Z,-79
2023-02-14T14:37:59.852Z,-79
2023-02-14T14:40:28.716Z,-79
2023-02-14T14:42:56.452Z,-79
2023-02-14T14:45:27.113Z,-81
2023-02-14T14:47:54.904Z,-79
2023-02-14T14:50:27.378Z,-81
2023-02-14T14:52:55.165Z,-79
2023-02-14T14:55:22.944Z,-78
2023-02-14T14:57:50.744Z,-78
2023-02-14T15:00:18.715Z,-77
2023-02-14T15:02:47.657Z,-78
2023-02-14T15:05:15.406Z,-78
2023-02-14T15:07:43.164Z,-77
2023-02-14T15:10:10.998Z,-78
2023-02-14T15:12:56.160Z,-77
2023-02-14T15:15:23.915Z,-78
2023-02-14T15:17:51.790Z,-79
2023-02-14T15:20:19.575Z,-82
2023-02-14T15:22:47.339Z,-78
2023-02-14T15:25:15.039Z,-78
2023-02-14T15:27:42.763Z,-78
2023-02-14T15:30:10.706Z,-78
2023-02-14T15:32:38.590Z,-78
2023-02-14T15:35:06.384Z,-78
2023-02-14T15:37:34.158Z,-79
2023-02-14T15:40:01.883Z,-77
2023-02-14T15:42:30.246Z,-81
2023-02-14T15:44:58.021Z,-78
2023-02-14T15:47:25.720Z,-77
2023-02-14T15:49:53.398Z,-77
2023-02-14T15:52:21.967Z,-77
2023-02-14T15:54:49.720Z,-77
2023-02-14T15:57:17.423Z,-77
2023-02-14T15:59:45.173Z,-77
2023-02-14T16:02:13.056Z,-79
2023-02-14T16:04:40.849Z,-78
2023-02-14T16:07:08.590Z,-77
2023-02-14T16:09:36.534Z,-77
2023-02-14T16:12:04.268Z,-79
2023-02-14T16:14:32.276Z,-79
2023-02-14T16:17:00.176Z,-80
2023-02-14T16:19:29.767Z,-79
2023-02-14T16:22:01.687Z,-80
2023-02-14T16:24:29.421Z,-79
2023-02-14T16:26:58.221Z,-79
2023-02-14T16:29:28.764Z,-80
2023-02-14T16:32:16.192Z,-79
2023-02-14T16:34:44.473Z,-78
2023-02-14T16:37:12.310Z,-79
2023-02-14T16:39:43.699Z,-79
2023-02-14T16:42:20.529Z,-78
2023-02-14T16:44:57.931Z,-79
2023-02-14T16:48:35.621Z,-80
2023-02-14T16:50:37.807Z,-79
2023-02-14T16:53:20.090Z,-79
2023-02-14T16:55:47.888Z,-79
2023-02-14T16:58:23.081Z,-79
2023-02-14T17:00:53.189Z,-81
2023-02-14T17:03:21.251Z,-79
2023-02-14T17:05:52.590Z,-79
2023-02-14T17:08:20.374Z,-79
2023-02-14T17:10:50.514Z,-79
2023-02-14T17:13:18.345Z,-77
2023-02-14T17:15:48.321Z,-77
2023-02-14T17:18:18.794Z,-80
2023-02-14T17:20:46.618Z,-78
2023-02-14T17:23:15.480Z,-78
2023-02-14T17:25:43.417Z,-78
2023-02-14T17:28:11.222Z,-78
2023-02-14T17:30:40.523Z,-78
2023-02-14T17:33:09.399Z,-78
2023-02-14T17:35:37.118Z,-78
2023-02-14T17:38:04.859Z,-78
2023-02-14T17:40:32.635Z,-78
2023-02-14T17:43:00.493Z,-78
2023-02-14T17:45:28.330Z,-80
2023-02-14T17:47:56.170Z,-78
2023-02-14T17:50:23.896Z,-78
2023-02-14T17:52:51.621Z,-78
2023-02-14T17:55:19.401Z,-78
2023-02-14T17:57:47.163Z,-78
2023-02-14T18:00:16.640Z,-78
2023-02-14T18:02:44.666Z,-78
2023-02-14T18:05:12.501Z,-78
2023-02-14T18:07:40.238Z,-77
2023-02-14T18:10:07.968Z,-78
2023-02-14T18:12:35.808Z,-78
2023-02-14T18:15:03.551Z,-78
2023-02-14T18:17:31.344Z,-82
2023-02-14T18:19:59.255Z,-78
2023-02-14T18:22:28.353Z,-79
2023-02-14T18:24:58.679Z,-80
2023-02-14T18:27:27.031Z,-79
2023-02-14T18:29:54.774Z,-79
2023-02-14T18:32:22.566Z,-78
2023-02-14T18:34:51.163Z,-79
2023-02-14T18:37:19.114Z,-79
2023-02-14T18:39:46.936Z,-79
2023-02-14T18:42:14.698Z,-79
2023-02-14T18:44:51.612Z,-79
2023-02-14T18:47:19.445Z,-79
2023-02-14T18:49:47.241Z,-79
2023-02-14T18:52:15.048Z,-82
2023-02-14T18:54:42.789Z,-79
2023-02-14T18:57:10.596Z,-80
2023-02-14T18:59:39.294Z,-78
2023-02-14T19:02:07.072Z,-79
2023-02-14T19:04:35.044Z,-79
2023-02-14T19:07:04.474Z,-81
2023-02-14T19:09:38.977Z,-77
2023-02-14T19:12:06.818Z,-76
2023-02-14T19:14:34.666Z,-77
2023-02-14T19:17:02.517Z,-77
2023-02-14T19:19:30.247Z,-77
2023-02-14T19:21:58.063Z,-77
2023-02-14T19:24:26.641Z,-77
2023-02-14T19:26:54.802Z,-77
2023-02-14T19:29:22.580Z,-77
2023-02-14T19:31:50.406Z,-77
2023-02-14T19:34:18.217Z,-78
2023-02-14T19:36:46.157Z,-79
2023-02-14T19:39:13.903Z,-78
2023-02-14T19:41:41.840Z,-78
2023-02-14T19:44:09.654Z,-78
2023-02-14T19:46:38.241Z,-78
2023-02-14T19:49:06.010Z,-78
2023-02-14T19:51:33.904Z,-78
2023-02-14T19:54:01.671Z,-78
2023-02-14T19:56:29.394Z,-78
2023-02-14T19:58:57.220Z,-77
2023-02-14T20:01:25.542Z,-78
2023-02-14T20:03:53.564Z,-78
2023-02-14T20:06:21.319Z,-78
2023-02-14T20:08:49.156Z,-79
2023-02-14T20:11:17.039Z,-78
2023-02-14T20:13:44.814Z,-78
2023-02-14T20:16:12.601Z,-78
2023-02-14T20:18:40.349Z,-78
2023-02-14T20:21:08.617Z,-78
2023-02-14T20:23:36.473Z,-78
2023-02-14T20:26:04.347Z,-78
2023-02-14T20:28:32.081Z,-78
2023-02-14T20:31:00.107Z,-79
2023-02-14T20:33:28.180Z,-78
2023-02-14T20:35:55.946Z,-79
2023-02-14T20:38:23.657Z,-78
2023-02-14T20:40:51.370Z,-78
2023-02-14T20:43:19.125Z,-78
2023-02-14T20:45:46.960Z,-78
2023-02-14T20:48:14.774Z,-82
2023-02-14T20:50:42.510Z,-78
2023-02-14T20:53:10.314Z,-78
2023-02-14T20:55:38.135Z,-72
2023-02-14T20:58:05.897Z,-71
2023-02-14T21:00:33.700Z,-72
2023-02-14T21:03:01.433Z,-71
2023-02-14T21:05:29.226Z,-72
2023-02-14T21:07:57.054Z,-72
2023-02-14T21:10:24.831Z,-71
2023-02-14T21:12:53.746Z,-71
2023-02-14T21:15:21.536Z,-71
2023-02-14T21:17:49.471Z,-71
2023-02-14T21:20:19.450Z,-71
2023-02-14T21:22:47.645Z,-72
2023-02-14T21:25:15.617Z,-71
2023-02-14T21:27:43.549Z,-71
2023-02-14T21:30:11.371Z,-71
2023-02-14T21:32:39.329Z,-71
2023-02-14T21:35:07.089Z,-71
2023-02-14T21:37:34.929Z,-71
2023-02-14T21:40:02.793Z,-71
2023-02-14T21:42:30.709Z,-71
2023-02-14T21:45:16.219Z,-72
2023-02-14T21:48:04.006Z,-71
2023-02-14T21:50:31.107Z,-71
2023-02-14T21:52:58.973Z,-71
2023-02-14T21:55:26.714Z,-72
2023-02-14T21:57:54.496Z,-72
2023-02-14T22:00:23.434Z,-72
2023-02-14T22:02:51.263Z,-72
2023-02-14T22:05:19.132Z,-73
2023-02-14T22:07:46.880Z,-72
2023-02-14T22:10:14.720Z,-72
2023-02-14T22:12:42.536Z,-72
2023-02-14T22:15:10.336Z,-72
2023-02-14T22:17:38.420Z,-72
2023-02-14T22:20:06.361Z,-72
2023-02-14T22:22:34.140Z,-72
2023-02-14T22:25:02.063Z,-73
2023-02-14T22:27:30.291Z,-73
2023-02-14T22:29:58.204Z,-72
2023-02-14T22:32:26.058Z,-72
2023-02-14T22:34:54.968Z,-73
2023-02-14T22:37:22.847Z,-72
2023-02-14T22:39:50.816Z,-74
2023-02-14T22:42:18.839Z,-73
2023-02-14T22:44:46.706Z,-73
2023-02-14T22:47:14.519Z,-73
2023-02-14T22:49:42.420Z,-72
2023-02-14T22:52:10.182Z,-73
2023-02-14T22:54:38.057Z,-72
2023-02-14T22:57:05.863Z,-72
2023-02-14T22:59:33.982Z,-72
2023-02-14T23:02:02.386Z,-73
2023-02-14T23:04:30.559Z,-72
2023-02-14T23:06:58.292Z,-72
2023-02-14T23:09:26.084Z,-72
2023-02-14T23:11:53.941Z,-72
2023-02-14T23:14:39.678Z,-72
2023-02-14T23:17:24.859Z,-73
2023-02-14T23:20:10.358Z,-72
2023-02-14T23:22:38.121Z,-72
2023-02-14T23:25:05.891Z,-72
2023-02-14T23:27:33.670Z,-72
2023-02-14T23:30:01.539Z,-72
2023-02-14T23:32:29.537Z,-72
2023-02-14T23:34:57.430Z,-73
2023-02-14T23:37:25.402Z,-72
2023-02-14T23:39:53.278Z,-73
2023-02-14T23:42:21.058Z,-72
2023-02-14T23:44:49.153Z,-72
2023-02-14T23:47:17.089Z,-72
2023-02-14T23:49:46.209Z,-72
2023-02-14T23:52:14.128Z,-72
2023-02-14T23:54:42.032Z,-72
2023-02-14T23:57:09.848Z,-72
2023-02-14T23:59:37.660Z,-72
